sensor_id;sensor_type;location;lat;lon;timestamp;P1;durP1;ratioP1;P2;durP2;ratioP2
7025;SDS011;3554;42.132;24.786;2023-02-04T00:01:20;7.40;;;6.80;;
7025;SDS011;3554;42.132;24.786;2023-02-04T00:03:46;7.50;;;6.80;;
7025;SDS011;3554;42.132;24.786;2023-02-04T00:06:15;7.60;;;7.10;;
7025;SDS011;3554;42.132;24.786;2023-02-04T00:08:41;6.33;;;5.87;;
7025;SDS011;3554;42.132;24.786;2023-02-04T00:11:08;6.93;;;6.53;;
7025;SDS011;3554;42.132;24.786;2023-02-04T00:13:35;7.30;;;6.80;;
7025;SDS011;3554;42.132;24.786;2023-02-04T00:16:02;7.07;;;6.57;;
7025;SDS011;3554;42.132;24.786;2023-02-04T00:18:29;6.80;;;6.30;;
7025;SDS011;3554;42.132;24.786;2023-02-04T00:20:56;7.40;;;6.80;;
7025;SDS011;3554;42.132;24.786;2023-02-04T00:23:24;7.23;;;6.73;;
7025;SDS011;3554;42.132;24.786;2023-02-04T00:25:50;7.90;;;7.30;;
7025;SDS011;3554;42.132;24.786;2023-02-04T00:28:17;10.57;;;7.90;;
7025;SDS011;3554;42.132;24.786;2023-02-04T00:30:44;8.23;;;7.43;;
7025;SDS011;3554;42.132;24.786;2023-02-04T00:33:11;10.90;;;7.80;;
7025;SDS011;3554;42.132;24.786;2023-02-04T00:35:38;9.07;;;8.30;;
7025;SDS011;3554;42.132;24.786;2023-02-04T00:38:05;9.37;;;8.20;;
7025;SDS011;3554;42.132;24.786;2023-02-04T00:40:34;11.83;;;8.13;;
7025;SDS011;3554;42.132;24.786;2023-02-04T00:43:00;9.90;;;8.27;;
7025;SDS011;3554;42.132;24.786;2023-02-04T00:45:27;9.50;;;8.53;;
7025;SDS011;3554;42.132;24.786;2023-02-04T00:47:54;10.77;;;8.60;;
7025;SDS011;3554;42.132;24.786;2023-02-04T00:50:21;10.47;;;8.83;;
7025;SDS011;3554;42.132;24.786;2023-02-04T00:52:48;10.73;;;9.07;;
7025;SDS011;3554;42.132;24.786;2023-02-04T00:55:15;8.87;;;8.07;;
7025;SDS011;3554;42.132;24.786;2023-02-04T00:57:43;9.10;;;8.20;;
7025;SDS011;3554;42.132;24.786;2023-02-04T01:00:12;9.67;;;8.77;;
7025;SDS011;3554;42.132;24.786;2023-02-04T01:02:40;9.03;;;8.23;;
7025;SDS011;3554;42.132;24.786;2023-02-04T01:05:07;9.50;;;8.47;;
7025;SDS011;3554;42.132;24.786;2023-02-04T01:07:34;7.20;;;6.70;;
7025;SDS011;3554;42.132;24.786;2023-02-04T01:10:01;6.63;;;6.13;;
7025;SDS011;3554;42.132;24.786;2023-02-04T01:12:28;8.20;;;7.50;;
7025;SDS011;3554;42.132;24.786;2023-02-04T01:14:56;7.07;;;6.53;;
7025;SDS011;3554;42.132;24.786;2023-02-04T01:17:23;6.40;;;6.00;;
7025;SDS011;3554;42.132;24.786;2023-02-04T01:19:50;6.47;;;5.40;;
7025;SDS011;3554;42.132;24.786;2023-02-04T01:22:16;6.33;;;5.93;;
7025;SDS011;3554;42.132;24.786;2023-02-04T01:24:43;7.83;;;7.27;;
7025;SDS011;3554;42.132;24.786;2023-02-04T01:27:10;7.30;;;6.80;;
7025;SDS011;3554;42.132;24.786;2023-02-04T01:29:37;8.47;;;6.90;;
7025;SDS011;3554;42.132;24.786;2023-02-04T01:32:05;8.30;;;7.80;;
7025;SDS011;3554;42.132;24.786;2023-02-04T01:34:32;7.47;;;6.90;;
7025;SDS011;3554;42.132;24.786;2023-02-04T01:36:58;8.43;;;7.23;;
7025;SDS011;3554;42.132;24.786;2023-02-04T01:39:25;8.83;;;8.07;;
7025;SDS011;3554;42.132;24.786;2023-02-04T01:41:52;8.77;;;7.90;;
7025;SDS011;3554;42.132;24.786;2023-02-04T01:44:19;9.03;;;7.63;;
7025;SDS011;3554;42.132;24.786;2023-02-04T01:46:46;8.73;;;7.87;;
7025;SDS011;3554;42.132;24.786;2023-02-04T01:49:14;9.13;;;8.40;;
7025;SDS011;3554;42.132;24.786;2023-02-04T01:51:41;9.73;;;8.83;;
7025;SDS011;3554;42.132;24.786;2023-02-04T01:54:08;10.13;;;9.23;;
7025;SDS011;3554;42.132;24.786;2023-02-04T01:56:37;8.93;;;8.03;;
7025;SDS011;3554;42.132;24.786;2023-02-04T01:59:09;11.00;;;7.87;;
7025;SDS011;3554;42.132;24.786;2023-02-04T02:01:38;8.70;;;7.40;;
7025;SDS011;3554;42.132;24.786;2023-02-04T02:04:06;7.50;;;6.80;;
7025;SDS011;3554;42.132;24.786;2023-02-04T02:06:35;9.00;;;7.73;;
7025;SDS011;3554;42.132;24.786;2023-02-04T02:09:05;8.30;;;7.43;;
7025;SDS011;3554;42.132;24.786;2023-02-04T02:11:32;8.33;;;7.57;;
7025;SDS011;3554;42.132;24.786;2023-02-04T02:13:59;7.63;;;7.10;;
7025;SDS011;3554;42.132;24.786;2023-02-04T02:16:26;8.53;;;7.13;;
7025;SDS011;3554;42.132;24.786;2023-02-04T02:18:53;8.17;;;7.20;;
7025;SDS011;3554;42.132;24.786;2023-02-04T02:21:23;8.57;;;7.47;;
7025;SDS011;3554;42.132;24.786;2023-02-04T02:23:59;7.53;;;6.93;;
7025;SDS011;3554;42.132;24.786;2023-02-04T02:26:26;8.13;;;7.33;;
7025;SDS011;3554;42.132;24.786;2023-02-04T02:28:53;8.50;;;7.70;;
7025;SDS011;3554;42.132;24.786;2023-02-04T02:31:20;10.17;;;7.90;;
7025;SDS011;3554;42.132;24.786;2023-02-04T02:33:47;12.30;;;8.60;;
7025;SDS011;3554;42.132;24.786;2023-02-04T02:36:14;8.40;;;7.60;;
7025;SDS011;3554;42.132;24.786;2023-02-04T02:38:41;9.00;;;7.87;;
7025;SDS011;3554;42.132;24.786;2023-02-04T02:41:10;8.80;;;7.97;;
7025;SDS011;3554;42.132;24.786;2023-02-04T02:43:37;9.93;;;8.13;;
7025;SDS011;3554;42.132;24.786;2023-02-04T02:46:04;7.33;;;6.73;;
7025;SDS011;3554;42.132;24.786;2023-02-04T02:48:31;7.20;;;6.60;;
7025;SDS011;3554;42.132;24.786;2023-02-04T02:50:58;7.73;;;7.00;;
7025;SDS011;3554;42.132;24.786;2023-02-04T02:53:25;8.17;;;7.53;;
7025;SDS011;3554;42.132;24.786;2023-02-04T02:55:52;9.03;;;8.33;;
7025;SDS011;3554;42.132;24.786;2023-02-04T02:58:22;10.13;;;7.77;;
7025;SDS011;3554;42.132;24.786;2023-02-04T03:00:51;8.40;;;7.70;;
7025;SDS011;3554;42.132;24.786;2023-02-04T03:03:19;9.73;;;7.87;;
7025;SDS011;3554;42.132;24.786;2023-02-04T03:05:50;8.43;;;7.73;;
7025;SDS011;3554;42.132;24.786;2023-02-04T03:08:20;8.73;;;7.37;;
7025;SDS011;3554;42.132;24.786;2023-02-04T03:10:47;7.33;;;6.77;;
7025;SDS011;3554;42.132;24.786;2023-02-04T03:13:15;8.77;;;8.07;;
7025;SDS011;3554;42.132;24.786;2023-02-04T03:15:45;9.17;;;8.27;;
7025;SDS011;3554;42.132;24.786;2023-02-04T03:18:13;8.60;;;7.83;;
7025;SDS011;3554;42.132;24.786;2023-02-04T03:20:43;8.73;;;8.03;;
7025;SDS011;3554;42.132;24.786;2023-02-04T03:23:11;8.97;;;8.17;;
7025;SDS011;3554;42.132;24.786;2023-02-04T03:25:38;9.87;;;7.77;;
7025;SDS011;3554;42.132;24.786;2023-02-04T03:28:05;9.00;;;7.50;;
7025;SDS011;3554;42.132;24.786;2023-02-04T03:30:32;11.63;;;8.00;;
7025;SDS011;3554;42.132;24.786;2023-02-04T03:33:00;9.10;;;8.30;;
7025;SDS011;3554;42.132;24.786;2023-02-04T03:35:27;8.27;;;7.47;;
7025;SDS011;3554;42.132;24.786;2023-02-04T03:37:53;10.83;;;8.17;;
7025;SDS011;3554;42.132;24.786;2023-02-04T03:40:20;8.80;;;7.77;;
7025;SDS011;3554;42.132;24.786;2023-02-04T03:42:47;9.50;;;8.20;;
7025;SDS011;3554;42.132;24.786;2023-02-04T03:45:14;9.63;;;8.03;;
7025;SDS011;3554;42.132;24.786;2023-02-04T03:47:41;8.93;;;7.53;;
7025;SDS011;3554;42.132;24.786;2023-02-04T03:50:09;8.60;;;7.90;;
7025;SDS011;3554;42.132;24.786;2023-02-04T03:52:38;8.30;;;7.17;;
7025;SDS011;3554;42.132;24.786;2023-02-04T03:55:05;7.50;;;6.80;;
7025;SDS011;3554;42.132;24.786;2023-02-04T03:57:32;9.93;;;7.73;;
7025;SDS011;3554;42.132;24.786;2023-02-04T03:59:59;8.17;;;7.37;;
7025;SDS011;3554;42.132;24.786;2023-02-04T04:02:25;8.70;;;7.23;;
7025;SDS011;3554;42.132;24.786;2023-02-04T04:04:52;7.23;;;6.60;;
7025;SDS011;3554;42.132;24.786;2023-02-04T04:07:20;8.07;;;7.40;;
7025;SDS011;3554;42.132;24.786;2023-02-04T04:09:47;7.23;;;6.63;;
7025;SDS011;3554;42.132;24.786;2023-02-04T04:12:14;13.13;;;7.20;;
7025;SDS011;3554;42.132;24.786;2023-02-04T04:14:41;9.07;;;7.87;;
7025;SDS011;3554;42.132;24.786;2023-02-04T04:17:07;13.40;;;7.53;;
7025;SDS011;3554;42.132;24.786;2023-02-04T04:19:34;7.90;;;7.17;;
7025;SDS011;3554;42.132;24.786;2023-02-04T04:22:01;8.20;;;7.17;;
7025;SDS011;3554;42.132;24.786;2023-02-04T04:24:29;8.60;;;7.30;;
7025;SDS011;3554;42.132;24.786;2023-02-04T04:26:56;8.17;;;7.33;;
7025;SDS011;3554;42.132;24.786;2023-02-04T04:29:23;7.67;;;7.10;;
7025;SDS011;3554;42.132;24.786;2023-02-04T04:31:49;8.57;;;7.70;;
7025;SDS011;3554;42.132;24.786;2023-02-04T04:34:16;13.80;;;8.10;;
7025;SDS011;3554;42.132;24.786;2023-02-04T04:36:43;9.00;;;8.07;;
7025;SDS011;3554;42.132;24.786;2023-02-04T04:39:10;7.80;;;7.00;;
7025;SDS011;3554;42.132;24.786;2023-02-04T04:41:38;8.73;;;7.70;;
7025;SDS011;3554;42.132;24.786;2023-02-04T04:44:05;14.10;;;7.67;;
7025;SDS011;3554;42.132;24.786;2023-02-04T04:46:32;11.80;;;7.60;;
7025;SDS011;3554;42.132;24.786;2023-02-04T04:48:58;14.30;;;8.30;;
7025;SDS011;3554;42.132;24.786;2023-02-04T04:51:25;11.67;;;8.23;;
7025;SDS011;3554;42.132;24.786;2023-02-04T04:53:55;8.63;;;6.17;;
7025;SDS011;3554;42.132;24.786;2023-02-04T04:56:22;7.77;;;6.73;;
7025;SDS011;3554;42.132;24.786;2023-02-04T04:58:51;10.23;;;7.70;;
7025;SDS011;3554;42.132;24.786;2023-02-04T05:01:17;7.10;;;6.40;;
7025;SDS011;3554;42.132;24.786;2023-02-04T05:03:45;9.50;;;7.10;;
7025;SDS011;3554;42.132;24.786;2023-02-04T05:06:12;10.27;;;7.27;;
7025;SDS011;3554;42.132;24.786;2023-02-04T05:08:39;8.80;;;7.77;;
7025;SDS011;3554;42.132;24.786;2023-02-04T05:11:05;8.17;;;6.87;;
7025;SDS011;3554;42.132;24.786;2023-02-04T05:13:32;8.23;;;7.17;;
7025;SDS011;3554;42.132;24.786;2023-02-04T05:16:00;8.40;;;7.57;;
7025;SDS011;3554;42.132;24.786;2023-02-04T05:18:27;13.27;;;7.50;;
7025;SDS011;3554;42.132;24.786;2023-02-04T05:20:54;9.20;;;8.27;;
7025;SDS011;3554;42.132;24.786;2023-02-04T05:23:21;8.57;;;7.70;;
7025;SDS011;3554;42.132;24.786;2023-02-04T05:25:47;9.73;;;8.13;;
7025;SDS011;3554;42.132;24.786;2023-02-04T05:28:14;9.50;;;8.57;;
7025;SDS011;3554;42.132;24.786;2023-02-04T05:30:41;9.00;;;8.30;;
7025;SDS011;3554;42.132;24.786;2023-02-04T05:33:09;9.63;;;8.93;;
7025;SDS011;3554;42.132;24.786;2023-02-04T05:35:36;9.57;;;8.57;;
7025;SDS011;3554;42.132;24.786;2023-02-04T05:38:02;14.53;;;9.00;;
7025;SDS011;3554;42.132;24.786;2023-02-04T05:40:29;11.57;;;9.30;;
7025;SDS011;3554;42.132;24.786;2023-02-04T05:42:56;10.57;;;8.57;;
7025;SDS011;3554;42.132;24.786;2023-02-04T05:45:23;11.53;;;9.00;;
7025;SDS011;3554;42.132;24.786;2023-02-04T05:47:50;12.30;;;9.90;;
7025;SDS011;3554;42.132;24.786;2023-02-04T05:50:18;11.23;;;8.57;;
7025;SDS011;3554;42.132;24.786;2023-02-04T05:52:45;10.47;;;9.43;;
7025;SDS011;3554;42.132;24.786;2023-02-04T05:55:11;13.37;;;10.30;;
7025;SDS011;3554;42.132;24.786;2023-02-04T05:57:38;17.13;;;11.27;;
7025;SDS011;3554;42.132;24.786;2023-02-04T06:00:05;18.67;;;12.20;;
7025;SDS011;3554;42.132;24.786;2023-02-04T06:02:34;16.53;;;11.27;;
7025;SDS011;3554;42.132;24.786;2023-02-04T06:05:01;17.27;;;10.20;;
7025;SDS011;3554;42.132;24.786;2023-02-04T06:07:29;22.90;;;10.90;;
7025;SDS011;3554;42.132;24.786;2023-02-04T06:09:56;24.93;;;14.67;;
7025;SDS011;3554;42.132;24.786;2023-02-04T06:12:23;15.87;;;11.07;;
7025;SDS011;3554;42.132;24.786;2023-02-04T06:14:49;19.93;;;10.60;;
7025;SDS011;3554;42.132;24.786;2023-02-04T06:17:16;12.50;;;9.60;;
7025;SDS011;3554;42.132;24.786;2023-02-04T06:19:43;11.93;;;9.63;;
7025;SDS011;3554;42.132;24.786;2023-02-04T06:22:10;12.93;;;9.30;;
7025;SDS011;3554;42.132;24.786;2023-02-04T06:24:38;12.60;;;9.90;;
7025;SDS011;3554;42.132;24.786;2023-02-04T06:27:05;23.57;;;11.33;;
7025;SDS011;3554;42.132;24.786;2023-02-04T06:29:31;19.60;;;11.33;;
7025;SDS011;3554;42.132;24.786;2023-02-04T06:31:58;20.10;;;11.90;;
7025;SDS011;3554;42.132;24.786;2023-02-04T06:34:25;19.67;;;12.40;;
7025;SDS011;3554;42.132;24.786;2023-02-04T06:36:52;29.57;;;14.50;;
7025;SDS011;3554;42.132;24.786;2023-02-04T06:39:18;23.53;;;13.90;;
7025;SDS011;3554;42.132;24.786;2023-02-04T06:41:47;29.37;;;14.60;;
7025;SDS011;3554;42.132;24.786;2023-02-04T06:44:14;31.00;;;15.87;;
7025;SDS011;3554;42.132;24.786;2023-02-04T06:46:41;35.87;;;17.27;;
7025;SDS011;3554;42.132;24.786;2023-02-04T06:49:07;36.47;;;19.17;;
7025;SDS011;3554;42.132;24.786;2023-02-04T06:51:34;39.07;;;18.47;;
7025;SDS011;3554;42.132;24.786;2023-02-04T06:54:01;33.80;;;17.43;;
7025;SDS011;3554;42.132;24.786;2023-02-04T06:56:28;31.23;;;17.73;;
7025;SDS011;3554;42.132;24.786;2023-02-04T06:58:56;40.43;;;18.60;;
7025;SDS011;3554;42.132;24.786;2023-02-04T07:01:23;29.97;;;17.50;;
7025;SDS011;3554;42.132;24.786;2023-02-04T07:03:49;27.77;;;16.80;;
7025;SDS011;3554;42.132;24.786;2023-02-04T07:06:16;31.53;;;17.20;;
7025;SDS011;3554;42.132;24.786;2023-02-04T07:08:43;29.43;;;17.30;;
7025;SDS011;3554;42.132;24.786;2023-02-04T07:11:11;27.47;;;16.07;;
7025;SDS011;3554;42.132;24.786;2023-02-04T07:13:38;24.60;;;15.70;;
7025;SDS011;3554;42.132;24.786;2023-02-04T07:16:06;26.20;;;14.13;;
7025;SDS011;3554;42.132;24.786;2023-02-04T07:18:33;17.07;;;13.60;;
7025;SDS011;3554;42.132;24.786;2023-02-04T07:21:00;21.17;;;14.17;;
7025;SDS011;3554;42.132;24.786;2023-02-04T07:23:27;24.53;;;13.60;;
7025;SDS011;3554;42.132;24.786;2023-02-04T07:25:53;21.40;;;12.97;;
7025;SDS011;3554;42.132;24.786;2023-02-04T07:28:21;15.90;;;10.87;;
7025;SDS011;3554;42.132;24.786;2023-02-04T07:30:49;11.37;;;10.27;;
7025;SDS011;3554;42.132;24.786;2023-02-04T07:33:17;21.47;;;11.07;;
7025;SDS011;3554;42.132;24.786;2023-02-04T07:35:49;13.23;;;10.60;;
7025;SDS011;3554;42.132;24.786;2023-02-04T07:38:15;13.67;;;10.90;;
7025;SDS011;3554;42.132;24.786;2023-02-04T07:40:42;11.63;;;10.53;;
7025;SDS011;3554;42.132;24.786;2023-02-04T07:43:09;12.77;;;9.33;;
7025;SDS011;3554;42.132;24.786;2023-02-04T07:45:36;9.17;;;8.30;;
7025;SDS011;3554;42.132;24.786;2023-02-04T07:48:03;9.10;;;8.10;;
7025;SDS011;3554;42.132;24.786;2023-02-04T07:50:32;10.63;;;7.47;;
7025;SDS011;3554;42.132;24.786;2023-02-04T07:52:59;8.03;;;5.57;;
7025;SDS011;3554;42.132;24.786;2023-02-04T07:55:25;8.13;;;5.53;;
7025;SDS011;3554;42.132;24.786;2023-02-04T07:57:52;4.43;;;4.10;;
7025;SDS011;3554;42.132;24.786;2023-02-04T08:00:19;5.23;;;4.00;;
7025;SDS011;3554;42.132;24.786;2023-02-04T08:02:46;5.97;;;4.00;;
7025;SDS011;3554;42.132;24.786;2023-02-04T08:05:13;4.00;;;3.70;;
7025;SDS011;3554;42.132;24.786;2023-02-04T08:07:42;6.13;;;3.43;;
7025;SDS011;3554;42.132;24.786;2023-02-04T08:10:09;3.20;;;2.87;;
7025;SDS011;3554;42.132;24.786;2023-02-04T08:12:36;4.07;;;2.83;;
7025;SDS011;3554;42.132;24.786;2023-02-04T08:15:03;3.10;;;2.90;;
7025;SDS011;3554;42.132;24.786;2023-02-04T08:17:31;3.23;;;2.93;;
7025;SDS011;3554;42.132;24.786;2023-02-04T08:19:58;3.50;;;3.10;;
7025;SDS011;3554;42.132;24.786;2023-02-04T08:22:25;2.50;;;2.30;;
7025;SDS011;3554;42.132;24.786;2023-02-04T08:24:53;3.73;;;2.87;;
7025;SDS011;3554;42.132;24.786;2023-02-04T08:27:20;2.90;;;2.33;;
7025;SDS011;3554;42.132;24.786;2023-02-04T08:29:47;4.40;;;2.73;;
7025;SDS011;3554;42.132;24.786;2023-02-04T08:32:14;3.07;;;2.87;;
7025;SDS011;3554;42.132;24.786;2023-02-04T08:34:40;2.70;;;2.20;;
7025;SDS011;3554;42.132;24.786;2023-02-04T08:37:08;5.80;;;3.00;;
7025;SDS011;3554;42.132;24.786;2023-02-04T08:39:35;9.03;;;2.67;;
7025;SDS011;3554;42.132;24.786;2023-02-04T08:42:04;5.30;;;2.80;;
7025;SDS011;3554;42.132;24.786;2023-02-04T08:44:30;3.70;;;2.17;;
7025;SDS011;3554;42.132;24.786;2023-02-04T08:46:57;5.07;;;2.40;;
7025;SDS011;3554;42.132;24.786;2023-02-04T08:49:24;21.17;;;4.00;;
7025;SDS011;3554;42.132;24.786;2023-02-04T08:51:51;2.53;;;1.50;;
7025;SDS011;3554;42.132;24.786;2023-02-04T08:54:17;2.90;;;1.47;;
7025;SDS011;3554;42.132;24.786;2023-02-04T08:56:44;3.07;;;1.23;;
7025;SDS011;3554;42.132;24.786;2023-02-04T08:59:12;22.70;;;3.33;;
7025;SDS011;3554;42.132;24.786;2023-02-04T09:01:39;1.23;;;1.13;;
7025;SDS011;3554;42.132;24.786;2023-02-04T09:04:06;49.40;;;7.10;;
7025;SDS011;3554;42.132;24.786;2023-02-04T09:06:33;2.63;;;1.60;;
7025;SDS011;3554;42.132;24.786;2023-02-04T09:09:00;17.90;;;3.20;;
7025;SDS011;3554;42.132;24.786;2023-02-04T09:11:27;2.00;;;0.97;;
7025;SDS011;3554;42.132;24.786;2023-02-04T09:13:53;2.10;;;1.03;;
7025;SDS011;3554;42.132;24.786;2023-02-04T09:16:22;3.90;;;1.43;;
7025;SDS011;3554;42.132;24.786;2023-02-04T09:18:49;1.60;;;1.40;;
7025;SDS011;3554;42.132;24.786;2023-02-04T09:21:16;2.03;;;1.43;;
7025;SDS011;3554;42.132;24.786;2023-02-04T09:23:43;1.40;;;1.20;;
7025;SDS011;3554;42.132;24.786;2023-02-04T09:26:10;1.10;;;1.10;;
7025;SDS011;3554;42.132;24.786;2023-02-04T09:28:37;5.43;;;1.60;;
7025;SDS011;3554;42.132;24.786;2023-02-04T09:31:04;1.30;;;1.10;;
7025;SDS011;3554;42.132;24.786;2023-02-04T09:33:33;3.53;;;1.23;;
7025;SDS011;3554;42.132;24.786;2023-02-04T09:36:01;2.67;;;1.33;;
7025;SDS011;3554;42.132;24.786;2023-02-04T09:38:28;1.07;;;1.07;;
7025;SDS011;3554;42.132;24.786;2023-02-04T09:40:55;1.40;;;1.30;;
7025;SDS011;3554;42.132;24.786;2023-02-04T09:43:26;5.00;;;0.93;;
7025;SDS011;3554;42.132;24.786;2023-02-04T09:45:54;3.23;;;1.03;;
7025;SDS011;3554;42.132;24.786;2023-02-04T09:48:22;3.13;;;1.43;;
7025;SDS011;3554;42.132;24.786;2023-02-04T09:50:51;3.10;;;1.73;;
7025;SDS011;3554;42.132;24.786;2023-02-04T09:53:27;2.20;;;2.00;;
7025;SDS011;3554;42.132;24.786;2023-02-04T09:55:55;1.30;;;1.20;;
7025;SDS011;3554;42.132;24.786;2023-02-04T09:58:22;1.57;;;1.47;;
7025;SDS011;3554;42.132;24.786;2023-02-04T10:00:55;64.40;;;6.93;;
7025;SDS011;3554;42.132;24.786;2023-02-04T10:03:25;1.73;;;1.20;;
7025;SDS011;3554;42.132;24.786;2023-02-04T10:05:53;7.43;;;1.67;;
7025;SDS011;3554;42.132;24.786;2023-02-04T10:08:23;0.93;;;0.93;;
7025;SDS011;3554;42.132;24.786;2023-02-04T10:10:53;1.60;;;1.50;;
7025;SDS011;3554;42.132;24.786;2023-02-04T10:13:23;1.67;;;1.20;;
7025;SDS011;3554;42.132;24.786;2023-02-04T10:15:55;1.50;;;1.33;;
7025;SDS011;3554;42.132;24.786;2023-02-04T10:18:24;4.33;;;2.63;;
7025;SDS011;3554;42.132;24.786;2023-02-04T10:20:55;2.00;;;1.90;;
7025;SDS011;3554;42.132;24.786;2023-02-04T10:23:26;1.37;;;1.30;;
7025;SDS011;3554;42.132;24.786;2023-02-04T10:25:53;7.13;;;1.40;;
7025;SDS011;3554;42.132;24.786;2023-02-04T10:28:19;1.40;;;1.30;;
7025;SDS011;3554;42.132;24.786;2023-02-04T10:30:46;1.70;;;1.60;;
7025;SDS011;3554;42.132;24.786;2023-02-04T10:33:14;2.07;;;1.20;;
7025;SDS011;3554;42.132;24.786;2023-02-04T10:35:46;3.60;;;1.50;;
7025;SDS011;3554;42.132;24.786;2023-02-04T10:38:16;3.47;;;1.00;;
7025;SDS011;3554;42.132;24.786;2023-02-04T10:40:44;1.87;;;1.17;;
7025;SDS011;3554;42.132;24.786;2023-02-04T10:43:14;3.13;;;1.50;;
7025;SDS011;3554;42.132;24.786;2023-02-04T10:45:46;2.13;;;1.37;;
7025;SDS011;3554;42.132;24.786;2023-02-04T10:48:21;1.87;;;1.50;;
7025;SDS011;3554;42.132;24.786;2023-02-04T10:50:48;2.33;;;1.07;;
7025;SDS011;3554;42.132;24.786;2023-02-04T10:53:17;1.33;;;1.23;;
7025;SDS011;3554;42.132;24.786;2023-02-04T10:56:03;1.50;;;1.40;;
7025;SDS011;3554;42.132;24.786;2023-02-04T10:58:31;1.67;;;1.23;;
7025;SDS011;3554;42.132;24.786;2023-02-04T11:00:58;2.23;;;1.23;;
7025;SDS011;3554;42.132;24.786;2023-02-04T11:03:26;1.60;;;1.50;;
7025;SDS011;3554;42.132;24.786;2023-02-04T11:05:56;1.67;;;1.57;;
7025;SDS011;3554;42.132;24.786;2023-02-04T11:08:27;1.60;;;1.50;;
7025;SDS011;3554;42.132;24.786;2023-02-04T11:10:57;4.10;;;1.50;;
7025;SDS011;3554;42.132;24.786;2023-02-04T11:13:26;2.97;;;1.13;;
7025;SDS011;3554;42.132;24.786;2023-02-04T11:16:07;1.80;;;1.70;;
7025;SDS011;3554;42.132;24.786;2023-02-04T11:18:49;2.10;;;2.00;;
7025;SDS011;3554;42.132;24.786;2023-02-04T11:21:21;2.10;;;1.27;;
7025;SDS011;3554;42.132;24.786;2023-02-04T11:24:03;1.47;;;1.33;;
7025;SDS011;3554;42.132;24.786;2023-02-04T11:26:33;2.10;;;1.70;;
7025;SDS011;3554;42.132;24.786;2023-02-04T11:29:09;2.07;;;1.87;;
7025;SDS011;3554;42.132;24.786;2023-02-04T11:31:59;1.70;;;1.60;;
7025;SDS011;3554;42.132;24.786;2023-02-04T11:34:30;1.10;;;1.10;;
7025;SDS011;3554;42.132;24.786;2023-02-04T11:37:14;1.10;;;1.10;;
7025;SDS011;3554;42.132;24.786;2023-02-04T11:39:45;2.97;;;1.90;;
7025;SDS011;3554;42.132;24.786;2023-02-04T11:42:16;1.23;;;1.23;;
7025;SDS011;3554;42.132;24.786;2023-02-04T11:44:51;2.00;;;0.97;;
7025;SDS011;3554;42.132;24.786;2023-02-04T11:47:20;1.10;;;1.00;;
7025;SDS011;3554;42.132;24.786;2023-02-04T11:49:52;1.53;;;1.23;;
7025;SDS011;3554;42.132;24.786;2023-02-04T11:52:21;1.70;;;1.60;;
7025;SDS011;3554;42.132;24.786;2023-02-04T11:54:56;0.80;;;0.80;;
7025;SDS011;3554;42.132;24.786;2023-02-04T11:57:24;14.07;;;2.77;;
7025;SDS011;3554;42.132;24.786;2023-02-04T11:59:52;3.43;;;0.90;;
7025;SDS011;3554;42.132;24.786;2023-02-04T12:02:19;4.90;;;1.27;;
7025;SDS011;3554;42.132;24.786;2023-02-04T12:04:52;5.07;;;1.20;;
7025;SDS011;3554;42.132;24.786;2023-02-04T12:07:20;0.70;;;0.70;;
7025;SDS011;3554;42.132;24.786;2023-02-04T12:09:50;4.00;;;1.20;;
7025;SDS011;3554;42.132;24.786;2023-02-04T12:12:23;1.47;;;0.93;;
7025;SDS011;3554;42.132;24.786;2023-02-04T12:15:00;4.20;;;1.03;;
7025;SDS011;3554;42.132;24.786;2023-02-04T12:17:29;1.33;;;1.23;;
7025;SDS011;3554;42.132;24.786;2023-02-04T12:19:55;1.07;;;1.00;;
7025;SDS011;3554;42.132;24.786;2023-02-04T12:22:22;2.80;;;1.20;;
7025;SDS011;3554;42.132;24.786;2023-02-04T12:24:49;5.10;;;1.60;;
7025;SDS011;3554;42.132;24.786;2023-02-04T12:27:17;8.17;;;1.47;;
7025;SDS011;3554;42.132;24.786;2023-02-04T12:29:45;1.07;;;1.07;;
7025;SDS011;3554;42.132;24.786;2023-02-04T12:32:12;3.80;;;1.50;;
7025;SDS011;3554;42.132;24.786;2023-02-04T12:34:39;4.63;;;1.67;;
7025;SDS011;3554;42.132;24.786;2023-02-04T12:37:05;2.20;;;1.53;;
7025;SDS011;3554;42.132;24.786;2023-02-04T12:39:32;3.50;;;1.50;;
7025;SDS011;3554;42.132;24.786;2023-02-04T12:41:59;1.80;;;1.67;;
7025;SDS011;3554;42.132;24.786;2023-02-04T12:44:28;3.77;;;1.33;;
7025;SDS011;3554;42.132;24.786;2023-02-04T12:46:56;3.50;;;1.47;;
7025;SDS011;3554;42.132;24.786;2023-02-04T12:49:23;4.23;;;1.40;;
7025;SDS011;3554;42.132;24.786;2023-02-04T12:51:50;5.63;;;2.47;;
7025;SDS011;3554;42.132;24.786;2023-02-04T12:54:17;1.60;;;0.93;;
7025;SDS011;3554;42.132;24.786;2023-02-04T12:56:43;1.20;;;1.10;;
7025;SDS011;3554;42.132;24.786;2023-02-04T12:59:10;3.20;;;1.10;;
7025;SDS011;3554;42.132;24.786;2023-02-04T13:01:37;0.90;;;0.90;;
7025;SDS011;3554;42.132;24.786;2023-02-04T13:04:05;1.00;;;0.97;;
7025;SDS011;3554;42.132;24.786;2023-02-04T13:06:32;1.00;;;1.00;;
7025;SDS011;3554;42.132;24.786;2023-02-04T13:08:59;1.33;;;1.23;;
7025;SDS011;3554;42.132;24.786;2023-02-04T13:11:25;1.63;;;1.53;;
7025;SDS011;3554;42.132;24.786;2023-02-04T13:13:52;2.50;;;1.43;;
7025;SDS011;3554;42.132;24.786;2023-02-04T13:16:19;1.37;;;1.20;;
7025;SDS011;3554;42.132;24.786;2023-02-04T13:18:48;1.10;;;0.67;;
7025;SDS011;3554;42.132;24.786;2023-02-04T13:21:16;1.00;;;1.00;;
7025;SDS011;3554;42.132;24.786;2023-02-04T13:23:43;5.43;;;1.10;;
7025;SDS011;3554;42.132;24.786;2023-02-04T13:26:10;2.43;;;1.00;;
7025;SDS011;3554;42.132;24.786;2023-02-04T13:28:36;3.10;;;1.07;;
7025;SDS011;3554;42.132;24.786;2023-02-04T13:31:03;1.50;;;0.80;;
7025;SDS011;3554;42.132;24.786;2023-02-04T13:33:31;0.97;;;0.97;;
7025;SDS011;3554;42.132;24.786;2023-02-04T13:35:57;1.07;;;0.93;;
7025;SDS011;3554;42.132;24.786;2023-02-04T13:38:26;1.47;;;0.90;;
7025;SDS011;3554;42.132;24.786;2023-02-04T13:40:52;1.10;;;1.07;;
7025;SDS011;3554;42.132;24.786;2023-02-04T13:43:19;0.90;;;0.90;;
7025;SDS011;3554;42.132;24.786;2023-02-04T13:45:46;1.43;;;0.87;;
7025;SDS011;3554;42.132;24.786;2023-02-04T13:48:13;2.40;;;1.40;;
7025;SDS011;3554;42.132;24.786;2023-02-04T13:50:40;1.47;;;1.37;;
7025;SDS011;3554;42.132;24.786;2023-02-04T13:53:07;4.50;;;1.20;;
7025;SDS011;3554;42.132;24.786;2023-02-04T13:55:35;5.10;;;1.10;;
7025;SDS011;3554;42.132;24.786;2023-02-04T13:58:02;1.33;;;1.27;;
7025;SDS011;3554;42.132;24.786;2023-02-04T14:00:29;2.77;;;1.20;;
7025;SDS011;3554;42.132;24.786;2023-02-04T14:02:56;1.37;;;0.80;;
7025;SDS011;3554;42.132;24.786;2023-02-04T14:05:22;1.20;;;1.10;;
7025;SDS011;3554;42.132;24.786;2023-02-04T14:07:49;1.27;;;1.00;;
7025;SDS011;3554;42.132;24.786;2023-02-04T14:10:16;1.10;;;1.10;;
7025;SDS011;3554;42.132;24.786;2023-02-04T14:12:47;2.20;;;1.40;;
7025;SDS011;3554;42.132;24.786;2023-02-04T14:15:14;1.27;;;1.20;;
7025;SDS011;3554;42.132;24.786;2023-02-04T14:17:41;1.70;;;1.60;;
7025;SDS011;3554;42.132;24.786;2023-02-04T14:20:25;1.47;;;1.40;;
7025;SDS011;3554;42.132;24.786;2023-02-04T14:22:52;2.07;;;1.20;;
7025;SDS011;3554;42.132;24.786;2023-02-04T14:25:19;1.40;;;1.30;;
7025;SDS011;3554;42.132;24.786;2023-02-04T14:27:46;2.27;;;1.77;;
7025;SDS011;3554;42.132;24.786;2023-02-04T14:30:15;1.47;;;1.30;;
7025;SDS011;3554;42.132;24.786;2023-02-04T14:32:43;1.70;;;1.60;;
7025;SDS011;3554;42.132;24.786;2023-02-04T14:35:09;1.00;;;1.00;;
7025;SDS011;3554;42.132;24.786;2023-02-04T14:37:36;1.80;;;1.00;;
7025;SDS011;3554;42.132;24.786;2023-02-04T14:40:04;1.40;;;1.30;;
7025;SDS011;3554;42.132;24.786;2023-02-04T14:42:31;0.97;;;0.97;;
7025;SDS011;3554;42.132;24.786;2023-02-04T14:44:59;3.20;;;1.13;;
7025;SDS011;3554;42.132;24.786;2023-02-04T14:47:29;0.90;;;0.90;;
7025;SDS011;3554;42.132;24.786;2023-02-04T14:49:56;1.00;;;1.00;;
7025;SDS011;3554;42.132;24.786;2023-02-04T14:52:22;1.33;;;1.23;;
7025;SDS011;3554;42.132;24.786;2023-02-04T14:54:49;1.10;;;1.10;;
7025;SDS011;3554;42.132;24.786;2023-02-04T14:57:16;2.40;;;2.30;;
7025;SDS011;3554;42.132;24.786;2023-02-04T14:59:43;1.73;;;1.63;;
7025;SDS011;3554;42.132;24.786;2023-02-04T15:02:11;1.27;;;1.23;;